Time;durP1;ratioP1;P1;durP2;ratioP2;P2;SDS_P1;SDS_P2;PMS_P1;PMS_P2;Temp;Humidity;BMP_temperature;BMP_pressure;BME280_temperature;BME280_humidity;BME280_pressure;Samples;Min_cycle;Max_cycle;Signal;HPM_P1;HPM_P2
2023/11/08 00:00:05;;;;;;;4.88;1.17;;;6.00;99.90;;;;;;5131328;27;20613;-64
2023/11/08 00:02:30;;;;;;;3.95;1.05;;;6.00;99.90;;;;;;5134623;27;20015;-64
2023/11/08 00:04:56;;;;;;;3.28;1.38;;;6.00;99.90;;;;;;5133878;27;20015;-66
2023/11/08 00:07:22;;;;;;;7.35;1.77;;;6.00;99.90;;;;;;5135240;27;20076;-65
2023/11/08 00:09:47;;;;;;;3.05;0.88;;;5.90;99.90;;;;;;5133652;27;20049;-65
2023/11/08 00:12:13;;;;;;;5.53;1.20;;;5.90;99.90;;;;;;5134728;27;20019;-65
2023/11/08 00:14:38;;;;;;;3.60;1.13;;;5.90;99.90;;;;;;5134550;27;20030;-65
2023/11/08 00:17:04;;;;;;;7.75;1.48;;;5.90;99.90;;;;;;5130618;27;20130;-65
2023/11/08 00:19:30;;;;;;;8.65;1.55;;;5.80;99.90;;;;;;5134124;27;20115;-65
2023/11/08 00:21:58;;;;;;;3.42;0.90;;;5.90;99.90;;;;;;5134086;27;20019;-65
2023/11/08 00:24:29;;;;;;;2.97;1.45;;;5.90;99.90;;;;;;5134909;27;20023;-65
2023/11/08 00:26:55;;;;;;;2.85;0.93;;;6.00;99.90;;;;;;5133294;27;20018;-65
2023/11/08 00:29:22;;;;;;;7.20;1.67;;;6.10;99.90;;;;;;5135007;27;20019;-65
2023/11/08 00:31:50;;;;;;;3.88;1.10;;;6.20;99.90;;;;;;5133922;27;20015;-65
2023/11/08 00:34:17;;;;;;;3.88;0.95;;;6.30;99.90;;;;;;5123054;27;20015;-65
2023/11/08 00:36:43;;;;;;;2.72;1.08;;;6.50;99.90;;;;;;5134472;27;20054;-65
2023/11/08 00:39:08;;;;;;;5.32;0.80;;;6.50;99.90;;;;;;5134091;27;20401;-64
2023/11/08 00:41:35;;;;;;;4.25;0.88;;;6.60;99.90;;;;;;5134919;27;20019;-65
2023/11/08 00:44:02;;;;;;;4.20;0.77;;;6.70;99.90;;;;;;5133438;27;20038;-65
2023/11/08 00:46:27;;;;;;;3.28;0.98;;;6.70;99.90;;;;;;5134489;27;20022;-65
2023/11/08 00:48:53;;;;;;;6.68;1.10;;;6.70;99.90;;;;;;5133396;27;20019;-65
2023/11/08 00:51:21;;;;;;;3.90;1.17;;;6.60;99.90;;;;;;5134498;27;20368;-65
2023/11/08 00:53:47;;;;;;;5.07;1.20;;;6.60;99.90;;;;;;5133299;27;20034;-65
2023/11/08 00:56:13;;;;;;;7.40;1.52;;;6.50;99.90;;;;;;5127238;27;20015;-65
2023/11/08 00:58:39;;;;;;;2.47;0.90;;;6.40;99.90;;;;;;5134089;27;20022;-65
2023/11/08 01:01:05;;;;;;;3.28;1.00;;;6.30;99.90;;;;;;5133769;27;20023;-65
2023/11/08 01:03:32;;;;;;;4.53;1.25;;;6.30;99.90;;;;;;5133715;27;20509;-65
2023/11/08 01:05:57;;;;;;;8.60;1.17;;;6.20;99.90;;;;;;5133572;27;20080;-65
2023/11/08 01:08:23;;;;;;;5.50;1.17;;;6.30;99.90;;;;;;5133730;27;20015;-65
2023/11/08 01:10:51;;;;;;;5.45;1.33;;;6.20;99.90;;;;;;5133595;27;20167;-65
2023/11/08 01:13:17;;;;;;;2.40;1.13;;;6.20;99.90;;;;;;5133631;27;20430;-65
2023/11/08 01:15:43;;;;;;;4.93;1.00;;;6.20;99.90;;;;;;5133625;27;20103;-66
2023/11/08 01:18:10;;;;;;;5.80;1.15;;;6.30;99.90;;;;;;5133221;27;20105;-65
2023/11/08 01:20:35;;;;;;;3.95;1.33;;;6.40;99.90;;;;;;5127094;27;20023;-65
2023/11/08 01:23:02;;;;;;;4.43;0.98;;;6.40;99.90;;;;;;5132704;27;20519;-65
2023/11/08 01:25:27;;;;;;;4.88;1.10;;;6.40;99.90;;;;;;5134049;27;20019;-65
2023/11/08 01:27:53;;;;;;;3.97;1.13;;;6.30;99.90;;;;;;5132430;27;20376;-65
2023/11/08 01:30:19;;;;;;;7.45;1.25;;;6.30;99.90;;;;;;5134003;27;20083;-65
2023/11/08 01:32:44;;;;;;;4.13;1.17;;;6.20;99.90;;;;;;5131915;27;20019;-65
2023/11/08 01:35:11;;;;;;;4.22;1.20;;;6.20;99.90;;;;;;5133412;27;20372;-65
2023/11/08 01:37:39;;;;;;;6.18;1.20;;;6.10;99.90;;;;;;5133709;27;20034;-65
2023/11/08 01:40:07;;;;;;;5.85;1.10;;;6.10;99.90;;;;;;5114148;27;20475;-66
2023/11/08 01:42:33;;;;;;;3.38;1.05;;;6.10;99.90;;;;;;5133602;27;20020;-66
2023/11/08 01:44:59;;;;;;;6.32;1.20;;;6.00;99.90;;;;;;5132510;27;20030;-65
2023/11/08 01:47:25;;;;;;;4.82;1.65;;;5.90;99.90;;;;;;5133363;27;20019;-65
2023/11/08 01:49:51;;;;;;;3.90;1.10;;;5.90;99.90;;;;;;5132307;27;20027;-65
2023/11/08 01:52:17;;;;;;;2.95;0.93;;;5.90;99.90;;;;;;5132587;27;20030;-65
2023/11/08 01:54:48;;;;;;;5.10;1.20;;;5.80;99.90;;;;;;5132258;27;20029;-65
2023/11/08 01:57:15;;;;;;;3.88;1.20;;;5.80;99.90;;;;;;5133412;27;20019;-65
2023/11/08 01:59:41;;;;;;;3.97;1.08;;;5.80;99.90;;;;;;5132488;27;20083;-65
2023/11/08 02:02:07;;;;;;;4.25;1.00;;;5.80;99.90;;;;;;5132623;27;20023;-66
2023/11/08 02:04:35;;;;;;;6.32;1.05;;;5.70;99.90;;;;;;5132928;27;20091;-66
2023/11/08 02:07:01;;;;;;;4.93;1.13;;;5.70;99.90;;;;;;5132107;27;20663;-65
2023/11/08 02:09:28;;;;;;;3.38;0.90;;;5.70;99.90;;;;;;5132685;27;20027;-65
2023/11/08 02:11:53;;;;;;;3.13;1.10;;;5.70;99.90;;;;;;5132200;27;20027;-66
2023/11/08 02:14:19;;;;;;;2.33;1.00;;;5.80;99.90;;;;;;5132580;27;20023;-66
2023/11/08 02:16:45;;;;;;;5.20;1.05;;;5.80;99.90;;;;;;5131405;27;20379;-65
2023/11/08 02:19:11;;;;;;;4.25;1.00;;;5.70;99.90;;;;;;5131868;28;20064;-65
2023/11/08 02:21:36;;;;;;;4.45;1.23;;;5.70;99.90;;;;;;5132535;27;20448;-65
2023/11/08 02:24:17;;;;;;;3.38;0.90;;;5.70;99.90;;;;;;5130757;28;20023;-66
2023/11/08 02:26:43;;;;;;;;;;;5.60;99.90;;;;;;5122244;28;20064;-66
2023/11/08 02:29:08;;;;;;;3.38;0.88;;;5.50;99.90;;;;;;5131402;28;20251;-66
2023/11/08 02:31:34;;;;;;;4.35;1.00;;;5.60;99.90;;;;;;5131730;28;20537;-65
2023/11/08 02:33:59;;;;;;;5.65;0.93;;;5.60;99.90;;;;;;5130692;28;20019;-66
2023/11/08 02:36:25;;;;;;;4.18;1.08;;;5.60;99.90;;;;;;5131712;28;20064;-66
2023/11/08 02:38:51;;;;;;;3.45;1.00;;;5.60;99.90;;;;;;5131306;27;20021;-66
2023/11/08 02:41:17;;;;;;;2.80;1.10;;;5.60;99.90;;;;;;5132014;28;20427;-65
2023/11/08 02:43:43;;;;;;;3.50;0.85;;;5.60;99.90;;;;;;5130709;28;20099;-66
2023/11/08 02:46:09;;;;;;;2.97;0.90;;;5.60;99.90;;;;;;5131984;28;20023;-65
2023/11/08 02:48:35;;;;;;;2.60;1.08;;;5.60;99.90;;;;;;5130920;28;20015;-65
2023/11/08 02:51:02;;;;;;;3.92;0.82;;;5.50;99.90;;;;;;5124889;28;20031;-66
2023/11/08 02:53:27;;;;;;;2.83;0.93;;;5.60;99.90;;;;;;5127740;28;20023;-66
2023/11/08 02:55:53;;;;;;;1.50;0.75;;;5.50;99.90;;;;;;5131413;27;20019;-65
2023/11/08 02:58:18;;;;;;;4.85;1.10;;;5.50;99.90;;;;;;5131148;28;20023;-66
2023/11/08 03:00:45;;;;;;;2.65;0.70;;;5.50;99.90;;;;;;5130758;28;20027;-67
2023/11/08 03:03:13;;;;;;;5.45;1.20;;;5.50;99.90;;;;;;5129670;27;20019;-65
2023/11/08 03:05:38;;;;;;;7.18;1.20;;;5.60;99.90;;;;;;5131494;28;20146;-66
2023/11/08 03:08:04;;;;;;;4.10;0.90;;;5.60;99.90;;;;;;5130373;28;20059;-66
2023/11/08 03:10:31;;;;;;;2.78;1.00;;;5.60;99.90;;;;;;5131564;28;20482;-66
2023/11/08 03:12:56;;;;;;;5.47;1.05;;;5.60;99.90;;;;;;5112057;28;20015;-64
2023/11/08 03:15:22;;;;;;;2.22;0.95;;;5.60;99.90;;;;;;5129885;28;20087;-65
2023/11/08 03:17:50;;;;;;;2.30;0.80;;;5.60;99.90;;;;;;5067607;27;1204686;-67
2023/11/08 03:20:16;;;;;;;3.38;1.00;;;5.60;99.90;;;;;;5110633;28;21248;-66
2023/11/08 03:22:42;;;;;;;3.08;0.95;;;5.50;99.90;;;;;;5107075;28;20421;-66
2023/11/08 03:25:11;;;;;;;2.63;0.75;;;5.50;99.90;;;;;;5110718;28;20048;-66
2023/11/08 03:27:41;;;;;;;2.40;0.82;;;5.50;99.90;;;;;;5110730;28;20082;-65
2023/11/08 03:30:08;;;;;;;4.43;1.02;;;5.40;99.90;;;;;;5108680;28;20032;-65
2023/11/08 03:32:33;;;;;;;5.65;1.35;;;5.50;99.90;;;;;;5109676;28;20020;-65
2023/11/08 03:34:59;;;;;;;7.20;1.52;;;5.50;99.90;;;;;;5109566;28;20027;-66
2023/11/08 03:37:24;;;;;;;5.35;1.10;;;5.40;99.90;;;;;;5110382;28;20376;-66
2023/11/08 03:39:51;;;;;;;5.55;1.25;;;5.50;99.90;;;;;;5109435;28;20472;-65
2023/11/08 03:42:17;;;;;;;4.35;1.05;;;5.50;99.90;;;;;;5110355;28;20036;-65
2023/11/08 03:44:42;;;;;;;6.07;1.30;;;5.50;99.90;;;;;;5110402;28;20020;-67
2023/11/08 03:47:10;;;;;;;5.05;1.05;;;5.60;99.90;;;;;;5108722;28;20356;-66
2023/11/08 03:49:35;;;;;;;3.45;0.93;;;5.60;99.90;;;;;;5110305;28;20099;-65
2023/11/08 03:52:02;;;;;;;6.05;1.10;;;5.70;99.90;;;;;;5106819;28;20027;-65
2023/11/08 03:54:28;;;;;;;8.38;1.77;;;5.70;99.90;;;;;;5110035;28;20076;-65
2023/11/08 03:56:54;;;;;;;4.07;1.27;;;5.80;99.90;;;;;;5109882;28;20015;-65
2023/11/08 03:59:19;;;;;;;5.78;0.90;;;5.80;99.90;;;;;;5110311;28;20012;-65
2023/11/08 04:01:48;;;;;;;6.93;1.15;;;5.90;99.90;;;;;;5109715;28;20022;-65
2023/11/08 04:04:14;;;;;;;3.03;1.30;;;6.10;99.90;;;;;;5107818;28;20020;-65
2023/11/08 04:06:40;;;;;;;2.88;0.80;;;6.10;99.90;;;;;;5109827;28;20022;-65
2023/11/08 04:09:06;;;;;;;4.50;1.05;;;6.30;99.90;;;;;;5109384;28;20042;-65
2023/11/08 04:11:31;;;;;;;4.68;0.90;;;6.40;99.90;;;;;;5110539;28;20448;-65
2023/11/08 04:13:57;;;;;;;7.03;1.20;;;6.50;99.90;;;;;;5109010;28;20028;-66
2023/11/08 04:16:23;;;;;;;5.45;1.23;;;6.60;99.90;;;;;;5096827;27;20043;-66
2023/11/08 04:18:49;;;;;;;5.30;1.13;;;6.60;99.90;;;;;;5124801;27;20027;-66
2023/11/08 04:21:15;;;;;;;4.38;0.95;;;6.60;99.90;;;;;;5121695;27;20034;-66
2023/11/08 04:23:40;;;;;;;4.07;1.35;;;6.80;99.90;;;;;;5123672;27;20012;-66
2023/11/08 04:26:06;;;;;;;4.97;1.05;;;6.80;99.90;;;;;;5124106;27;20355;-65
2023/11/08 04:28:32;;;;;;;7.10;1.38;;;6.80;99.90;;;;;;5123477;27;20023;-65
2023/11/08 04:30:58;;;;;;;5.40;1.25;;;6.80;99.90;;;;;;5119217;27;20016;-65
2023/11/08 04:33:24;;;;;;;3.58;1.42;;;6.80;99.90;;;;;;5124616;27;20053;-65
2023/11/08 04:35:50;;;;;;;10.50;1.60;;;6.80;99.90;;;;;;5121871;27;20020;-65
2023/11/08 04:38:16;;;;;;;5.97;1.23;;;6.80;99.90;;;;;;5121284;27;20019;-65
2023/11/08 04:40:42;;;;;;;3.13;0.80;;;6.80;99.90;;;;;;5122659;27;20031;-65
2023/11/08 04:43:08;;;;;;;5.10;1.00;;;6.80;99.90;;;;;;5121767;27;20011;-66
2023/11/08 04:45:33;;;;;;;3.22;1.10;;;6.80;99.90;;;;;;5124856;27;20486;-66
2023/11/08 04:47:59;;;;;;;4.80;1.20;;;6.80;99.90;;;;;;5121400;27;20444;-66
2023/11/08 04:50:24;;;;;;;3.97;1.48;;;6.80;99.90;;;;;;5119893;27;20027;-65
2023/11/08 04:52:50;;;;;;;4.90;1.02;;;6.90;99.90;;;;;;5120923;27;20088;-66
2023/11/08 04:55:15;;;;;;;4.38;1.25;;;6.90;99.90;;;;;;5122555;27;20050;-65
2023/11/08 04:57:41;;;;;;;5.03;1.27;;;6.90;99.90;;;;;;5123074;27;20520;-66
2023/11/08 05:00:07;;;;;;;5.47;1.08;;;7.00;99.90;;;;;;5120927;27;20034;-65
2023/11/08 05:02:33;;;;;;;4.70;1.20;;;7.00;99.90;;;;;;5124106;27;20036;-66
2023/11/08 05:04:59;;;;;;;3.42;1.08;;;7.00;99.90;;;;;;5121333;27;20015;-66
2023/11/08 05:07:25;;;;;;;4.53;1.23;;;6.90;99.90;;;;;;5122923;27;20051;-65
2023/11/08 05:09:53;;;;;;;6.70;1.30;;;6.80;99.90;;;;;;5121972;27;20444;-65
2023/11/08 05:12:19;;;;;;;4.60;1.00;;;6.70;99.90;;;;;;5120015;27;20015;-66
2023/11/08 05:14:45;;;;;;;3.15;1.02;;;6.60;99.90;;;;;;5122991;27;20092;-67
2023/11/08 05:17:11;;;;;;;5.97;1.45;;;6.50;99.90;;;;;;5128681;27;20082;-66
2023/11/08 05:19:37;;;;;;;5.38;1.58;;;6.50;99.90;;;;;;5132676;27;20428;-66
2023/11/08 05:22:03;;;;;;;6.30;1.48;;;6.40;99.90;;;;;;5132219;27;20590;-65
2023/11/08 05:24:30;;;;;;;7.43;1.10;;;6.40;99.90;;;;;;5132958;27;20035;-65
2023/11/08 05:26:55;;;;;;;4.30;1.42;;;6.30;99.90;;;;;;5131437;27;20019;-65
2023/11/08 05:29:21;;;;;;;5.72;1.10;;;6.30;99.90;;;;;;5132884;27;20462;-65
2023/11/08 05:31:47;;;;;;;3.25;1.40;;;6.20;99.90;;;;;;5130819;27;20020;-65
2023/11/08 05:34:16;;;;;;;3.15;1.42;;;6.20;99.90;;;;;;5131994;27;20018;-65
2023/11/08 05:36:41;;;;;;;3.08;1.50;;;6.20;99.90;;;;;;5132173;27;20022;-65
2023/11/08 05:39:07;;;;;;;5.18;1.30;;;6.10;99.90;;;;;;5130507;27;20023;-65
2023/11/08 05:41:33;;;;;;;4.97;1.63;;;6.10;99.90;;;;;;5131967;27;20540;-65
2023/11/08 05:43:59;;;;;;;6.13;1.65;;;6.00;99.90;;;;;;5130861;27;20019;-65
2023/11/08 05:46:28;;;;;;;3.33;1.60;;;6.00;99.90;;;;;;5133288;27;20030;-65
2023/11/08 05:49:00;;;;;;;7.38;2.03;;;5.90;99.90;;;;;;5130744;27;20023;-65
2023/11/08 05:51:27;;;;;;;8.70;1.60;;;5.90;99.90;;;;;;5121346;27;20023;-65
2023/11/08 05:53:53;;;;;;;12.15;2.05;;;5.90;99.90;;;;;;5129599;27;20098;-65
2023/11/08 05:56:19;;;;;;;5.00;1.80;;;5.90;99.90;;;;;;5131304;27;20098;-65
2023/11/08 05:58:44;;;;;;;3.65;1.60;;;5.80;99.90;;;;;;5130974;27;20474;-66
2023/11/08 06:01:15;;;;;;;6.30;1.80;;;5.90;99.90;;;;;;5131863;27;20026;-67
2023/11/08 06:03:41;;;;;;;4.63;1.63;;;5.80;99.90;;;;;;5132759;27;20064;-67
2023/11/08 06:06:06;;;;;;;5.63;1.48;;;5.90;99.90;;;;;;5131397;27;20023;-67
2023/11/08 06:08:32;;;;;;;7.13;1.70;;;5.90;99.90;;;;;;5131278;27;20027;-67
2023/11/08 06:10:57;;;;;;;7.43;1.40;;;5.80;99.90;;;;;;5130924;27;20469;-67
2023/11/08 06:13:23;;;;;;;6.78;1.85;;;5.80;99.90;;;;;;5132501;27;20370;-65
2023/11/08 06:15:49;;;;;;;3.92;1.70;;;5.80;99.90;;;;;;5131748;27;20054;-64
2023/11/08 06:18:15;;;;;;;6.72;1.63;;;5.70;99.90;;;;;;5132217;27;20075;-65
2023/11/08 06:20:40;;;;;;;6.10;1.60;;;5.70;99.90;;;;;;5132455;27;20019;-65
2023/11/08 06:23:06;;;;;;;3.63;1.23;;;5.70;99.90;;;;;;5131559;27;20027;-64
2023/11/08 06:25:32;;;;;;;3.90;1.40;;;5.70;99.90;;;;;;5131800;27;20054;-66
2023/11/08 06:27:59;;;;;;;4.70;1.77;;;5.70;99.90;;;;;;5131477;27;20047;-65
2023/11/08 06:30:25;;;;;;;5.85;2.42;;;5.70;99.90;;;;;;5130900;27;20084;-66
2023/11/08 06:32:50;;;;;;;6.40;1.52;;;5.70;99.90;;;;;;5130465;27;20023;-66
2023/11/08 06:35:16;;;;;;;6.32;1.70;;;5.80;99.90;;;;;;5112812;27;20021;-67
2023/11/08 06:37:42;;;;;;;5.03;1.70;;;5.80;99.90;;;;;;5131447;27;20019;-66
2023/11/08 06:40:09;;;;;;;5.07;1.88;;;5.90;99.90;;;;;;5129220;27;20055;-67
2023/11/08 06:42:35;;;;;;;3.35;1.30;;;5.90;99.90;;;;;;5127463;27;20482;-65
2023/11/08 06:45:01;;;;;;;4.78;1.73;;;6.00;99.90;;;;;;5124539;27;20062;-65
2023/11/08 06:47:27;;;;;;;6.80;1.52;;;6.00;99.90;;;;;;5124534;27;20512;-65
2023/11/08 06:49:52;;;;;;;4.95;1.42;;;6.10;99.90;;;;;;5125882;27;20026;-66
2023/11/08 06:52:18;;;;;;;4.22;1.40;;;6.10;99.90;;;;;;5131025;27;20101;-66
2023/11/08 06:54:43;;;;;;;4.75;1.33;;;6.10;99.90;;;;;;5123599;27;20031;-67
2023/11/08 06:57:09;;;;;;;7.70;1.70;;;6.10;99.90;;;;;;5130677;27;20084;-67
2023/11/08 06:59:36;;;;;;;8.63;1.77;;;6.10;99.90;;;;;;5130749;27;20076;-66
2023/11/08 07:02:03;;;;;;;3.17;1.40;;;6.10;99.90;;;;;;5098013;28;20659;-66
2023/11/08 07:04:28;;;;;;;3.97;1.70;;;6.20;99.90;;;;;;5131605;28;20031;-66
2023/11/08 07:06:54;;;;;;;6.90;2.03;;;6.30;99.90;;;;;;5129211;28;20098;-66
2023/11/08 07:09:20;;;;;;;3.63;1.30;;;6.30;99.90;;;;;;5131262;28;20012;-66
2023/11/08 07:11:47;;;;;;;7.75;1.48;;;6.40;99.90;;;;;;5130950;28;20367;-66
2023/11/08 07:14:13;;;;;;;4.43;1.50;;;6.40;99.90;;;;;;5131508;28;20047;-66
2023/11/08 07:16:39;;;;;;;6.70;1.15;;;6.40;99.90;;;;;;5131791;28;20066;-65
2023/11/08 07:19:04;;;;;;;5.05;1.10;;;6.40;99.90;;;;;;5125445;28;20379;-66
2023/11/08 07:21:30;;;;;;;3.05;1.13;;;6.30;99.90;;;;;;5131461;28;20560;-67
2023/11/08 07:23:56;;;;;;;4.57;1.08;;;6.30;99.90;;;;;;5128899;28;20073;-66
2023/11/08 07:26:21;;;;;;;9.43;1.58;;;6.30;99.90;;;;;;5128862;28;20908;-66
2023/11/08 07:28:47;;;;;;;3.40;1.20;;;6.40;99.90;;;;;;5125921;28;20015;-66
2023/11/08 07:31:13;;;;;;;5.43;1.15;;;6.40;99.90;;;;;;5128343;28;20031;-66
2023/11/08 07:33:40;;;;;;;3.13;1.25;;;6.50;99.90;;;;;;5131145;28;20046;-66
2023/11/08 07:36:06;;;;;;;6.28;1.40;;;6.60;99.90;;;;;;5125663;28;20031;-66
2023/11/08 07:38:35;;;;;;;5.68;1.10;;;6.70;99.90;;;;;;5130834;28;20739;-66
2023/11/08 07:41:02;;;;;;;2.88;0.90;;;6.90;99.90;;;;;;5126492;28;20531;-66
2023/11/08 07:43:30;;;;;;;3.35;1.30;;;7.00;99.90;;;;;;5128078;28;20023;-66
2023/11/08 07:45:58;;;;;;;5.65;1.58;;;7.10;99.90;;;;;;5127840;28;20023;-66
2023/11/08 07:48:26;;;;;;;2.88;1.00;;;7.20;99.90;;;;;;5130581;27;20035;-66
2023/11/08 07:50:52;;;;;;;4.47;1.40;;;7.20;99.90;;;;;;5130889;27;20053;-66
2023/11/08 07:53:19;;;;;;;3.30;1.17;;;7.30;99.90;;;;;;5129663;27;20012;-66
2023/11/08 07:55:45;;;;;;;4.03;1.35;;;7.30;99.90;;;;;;5114752;27;20085;-67
2023/11/08 07:58:10;;;;;;;1.92;0.90;;;7.30;99.90;;;;;;5125186;27;20051;-66
2023/11/08 08:00:36;;;;;;;2.88;1.17;;;7.40;99.90;;;;;;5124591;27;20023;-67
2023/11/08 08:03:02;;;;;;;4.07;1.63;;;7.50;99.90;;;;;;5133219;27;20657;-66
2023/11/08 08:05:27;;;;;;;4.05;1.30;;;7.60;99.90;;;;;;5135492;27;20046;-66
2023/11/08 08:07:53;;;;;;;8.10;1.10;;;7.60;99.90;;;;;;5132358;27;20094;-67
2023/11/08 08:10:21;;;;;;;3.47;1.33;;;7.70;99.90;;;;;;5133716;27;20023;-66
2023/11/08 08:12:48;;;;;;;3.00;0.90;;;7.80;99.90;;;;;;5123283;27;20098;-67
2023/11/08 08:15:13;;;;;;;2.20;1.00;;;7.80;99.90;;;;;;5130869;27;20022;-67
2023/11/08 08:17:39;;;;;;;3.05;1.30;;;7.90;99.90;;;;;;5114011;28;20044;-67
2023/11/08 08:20:05;;;;;;;4.45;1.02;;;8.00;99.90;;;;;;5108087;28;20030;-67
2023/11/08 08:22:31;;;;;;;4.72;1.20;;;8.10;99.90;;;;;;5113570;28;20047;-66
2023/11/08 08:24:57;;;;;;;5.25;1.27;;;8.10;99.90;;;;;;5113138;28;20028;-67
2023/11/08 08:27:24;;;;;;;3.20;1.10;;;8.20;99.90;;;;;;5113947;28;20027;-66
2023/11/08 08:29:49;;;;;;;2.03;0.75;;;8.20;99.90;;;;;;5112646;28;20160;-67
2023/11/08 08:32:15;;;;;;;6.03;1.23;;;8.30;99.90;;;;;;5113128;28;20098;-67
2023/11/08 08:34:41;;;;;;;2.75;0.90;;;8.40;99.90;;;;;;5108951;28;20026;-66
2023/11/08 08:37:07;;;;;;;4.90;1.20;;;8.40;99.90;;;;;;5112711;28;20019;-67
2023/11/08 08:39:33;;;;;;;4.32;1.27;;;8.50;99.90;;;;;;5107158;28;20023;-67
2023/11/08 08:42:00;;;;;;;5.30;1.20;;;8.60;99.90;;;;;;5112707;28;20035;-66
2023/11/08 08:44:25;;;;;;;3.03;1.20;;;8.60;99.90;;;;;;5115104;27;20103;-66
2023/11/08 08:46:51;;;;;;;1.92;0.75;;;8.70;99.90;;;;;;5109044;28;20482;-67
2023/11/08 08:49:17;;;;;;;6.53;1.17;;;8.80;99.90;;;;;;5113780;28;20031;-67
2023/11/08 08:51:43;;;;;;;3.13;0.90;;;8.90;99.90;;;;;;5112783;28;20106;-67
2023/11/08 08:54:09;;;;;;;1.98;0.75;;;9.10;99.90;;;;;;5112265;28;20161;-66
2023/11/08 08:56:34;;;;;;;3.25;0.85;;;9.20;99.90;;;;;;5101638;28;20031;-67
2023/11/08 08:59:00;;;;;;;2.53;0.88;;;9.20;99.90;;;;;;5108042;28;20098;-66
2023/11/08 09:01:26;;;;;;;4.82;0.70;;;9.30;99.90;;;;;;5108520;28;20027;-67
2023/11/08 09:03:52;;;;;;;3.42;0.80;;;9.40;99.90;;;;;;5111877;28;20020;-67
2023/11/08 09:06:21;;;;;;;0.77;0.60;;;9.50;99.90;;;;;;5117588;27;20015;-67
2023/11/08 09:08:47;;;;;;;3.03;1.20;;;9.50;99.90;;;;;;5107527;28;20084;-67
2023/11/08 09:11:13;;;;;;;2.95;0.90;;;9.70;99.90;;;;;;5106948;28;20072;-67
2023/11/08 09:13:39;;;;;;;3.63;0.80;;;9.70;99.90;;;;;;5112183;28;20055;-67
2023/11/08 09:16:09;;;;;;;0.75;0.65;;;9.80;99.90;;;;;;5111939;27;20071;-67
2023/11/08 09:18:35;;;;;;;6.05;1.10;;;9.90;99.90;;;;;;5117985;27;20024;-69
2023/11/08 09:21:01;;;;;;;4.18;0.70;;;10.00;99.90;;;;;;5118160;27;20032;-67
2023/11/08 09:23:28;;;;;;;2.15;0.70;;;10.00;99.90;;;;;;5129146;27;20051;-67
2023/11/08 09:25:54;;;;;;;4.90;1.00;;;10.00;99.90;;;;;;5123973;27;20016;-67
2023/11/08 09:28:20;;;;;;;1.17;0.60;;;10.10;99.90;;;;;;5132871;27;20027;-67
2023/11/08 09:30:46;;;;;;;3.28;0.77;;;10.20;99.90;;;;;;5132336;27;20026;-67
2023/11/08 09:33:12;;;;;;;2.85;0.70;;;10.20;99.90;;;;;;5129858;27;20125;-67
2023/11/08 09:35:38;;;;;;;2.50;0.70;;;10.30;99.90;;;;;;5121038;27;20066;-67
2023/11/08 09:38:04;;;;;;;7.78;0.90;;;10.40;99.90;;;;;;5117805;27;20047;-67
2023/11/08 09:40:29;;;;;;;2.03;0.88;;;10.50;99.90;;;;;;5132913;27;20047;-67
2023/11/08 09:42:56;;;;;;;4.93;0.98;;;10.50;99.90;;;;;;5132128;27;20027;-67
2023/11/08 09:45:25;;;;;;;1.73;0.70;;;10.60;99.90;;;;;;5123843;27;20041;-67
2023/11/08 09:47:51;;;;;;;4.27;0.70;;;10.70;99.90;;;;;;5110069;27;20024;-67
2023/11/08 09:50:21;;;;;;;2.10;0.57;;;10.80;99.90;;;;;;5105543;27;20257;-66
2023/11/08 09:52:47;;;;;;;;;;;10.80;99.90;;;;;;5111516;27;20016;-67
2023/11/08 09:55:13;;;;;;;1.65;0.70;;;10.80;99.90;;;;;;5122085;27;19906;-66
2023/11/08 09:57:40;;;;;;;2.33;0.50;;;10.80;99.90;;;;;;5123539;27;20104;-66
2023/11/08 10:00:07;;;;;;;2.47;0.60;;;10.90;99.90;;;;;;5117786;27;20039;-67
2023/11/08 10:02:36;;;;;;;2.20;0.60;;;11.10;99.90;;;;;;5112558;27;20476;-67
2023/11/08 10:05:04;;;;;;;1.20;0.60;;;11.10;99.90;;;;;;5119733;27;20618;-66
2023/11/08 10:07:29;;;;;;;1.08;0.60;;;11.10;99.90;;;;;;5111460;27;20257;-66
2023/11/08 10:09:55;;;;;;;4.05;0.68;;;11.20;99.90;;;;;;5117779;27;20440;-67
2023/11/08 10:12:21;;;;;;;3.83;0.50;;;11.10;99.90;;;;;;5131536;27;20030;-67
2023/11/08 10:14:58;;;;;;;0.77;0.60;;;11.10;99.90;;;;;;5127356;27;20011;-67
2023/11/08 10:17:41;;;;;;;1.60;0.85;;;11.00;99.90;;;;;;5124162;27;20051;-67
2023/11/08 10:20:08;;;;;;;2.10;0.50;;;10.90;99.90;;;;;;5103453;27;20039;-68
2023/11/08 10:22:34;;;;;;;1.63;0.57;;;10.80;99.90;;;;;;5127305;27;20106;-66
2023/11/08 10:25:05;;;;;;;1.20;0.40;;;10.80;99.90;;;;;;5119215;27;20473;-68
2023/11/08 10:27:32;;;;;;;1.52;0.88;;;10.80;99.90;;;;;;5124416;27;20023;-68
2023/11/08 10:30:13;;;;;;;2.15;0.68;;;10.80;99.90;;;;;;5127551;27;20039;-68
2023/11/08 10:32:39;;;;;;;1.90;0.85;;;10.90;99.90;;;;;;5130368;27;20029;-67
2023/11/08 10:35:16;;;;;;;2.47;0.68;;;11.00;99.90;;;;;;5130403;27;20023;-68
2023/11/08 10:37:42;;;;;;;1.75;0.85;;;11.10;99.90;;;;;;5117405;27;20030;-68
2023/11/08 10:40:09;;;;;;;2.20;0.65;;;11.20;99.90;;;;;;5130346;27;20102;-68
2023/11/08 10:42:35;;;;;;;2.20;1.00;;;11.20;99.90;;;;;;5124642;27;20425;-67
2023/11/08 10:45:11;;;;;;;2.65;0.80;;;11.40;99.90;;;;;;5118828;27;20092;-67
2023/11/08 10:47:38;;;;;;;0.75;0.50;;;11.50;99.90;;;;;;5123847;27;20424;-66
2023/11/08 10:50:06;;;;;;;3.20;0.70;;;11.40;99.90;;;;;;5118881;27;20614;-67
2023/11/08 10:52:33;;;;;;;1.38;0.60;;;11.40;99.90;;;;;;5128425;27;20024;-67
2023/11/08 10:54:58;;;;;;;4.63;0.60;;;11.50;99.90;;;;;;5115198;27;20027;-67
2023/11/08 10:57:29;;;;;;;3.40;0.77;;;11.70;99.90;;;;;;5131352;27;20027;-66
2023/11/08 10:59:59;;;;;;;1.95;0.68;;;11.90;99.90;;;;;;5119622;27;20110;-68
2023/11/08 11:02:38;;;;;;;0.70;0.60;;;12.10;99.90;;;;;;5125445;28;20019;-67
2023/11/08 11:05:08;;;;;;;4.53;0.95;;;12.20;99.90;;;;;;5119910;28;20015;-67
2023/11/08 11:07:41;;;;;;;3.38;0.95;;;12.20;99.90;;;;;;5123772;28;20027;-68
2023/11/08 11:10:08;;;;;;;1.67;1.10;;;12.10;99.90;;;;;;5119973;28;20031;-67
2023/11/08 11:13:01;;;;;;;1.52;0.93;;;11.90;99.90;;;;;;5112670;28;20066;-67
2023/11/08 11:15:38;;;;;;;3.17;0.93;;;11.90;99.90;;;;;;5124033;28;20455;-68
2023/11/08 11:18:08;;;;;;;3.38;1.50;;;11.90;99.90;;;;;;5126516;28;20452;-68
2023/11/08 11:20:42;;;;;;;2.90;0.82;;;11.80;99.90;;;;;;5126177;28;20027;-68
2023/11/08 11:23:41;;;;;;;2.65;0.75;;;11.80;99.90;;;;;;5130870;27;20586;-68
2023/11/08 11:26:10;;;;;;;2.28;0.73;;;11.60;99.90;;;;;;5125011;27;20106;-68
2023/11/08 11:28:53;;;;;;;1.77;0.55;;;11.60;99.90;;;;;;5125716;27;20019;-68
2023/11/08 11:31:40;;;;;;;0.90;0.60;;;11.60;99.90;;;;;;5129998;27;20102;-68
2023/11/08 11:34:29;;;;;;;3.42;0.80;;;11.80;99.90;;;;;;5134334;27;20030;-68
2023/11/08 11:37:03;;;;;;;1.65;0.85;;;12.00;99.90;;;;;;5125600;27;20032;-66
2023/11/08 11:39:32;;;;;;;1.35;0.70;;;12.10;99.90;;;;;;5130433;27;20020;-67
2023/11/08 11:42:17;;;;;;;1.88;0.70;;;12.00;99.90;;;;;;5110424;28;20034;-68
2023/11/08 11:44:51;;;;;;;1.50;0.57;;;12.00;99.90;;;;;;5114883;27;20333;-68
2023/11/08 11:47:27;;;;;;;1.88;0.50;;;12.00;99.90;;;;;;5135448;27;20333;-68
2023/11/08 11:50:00;;;;;;;2.83;1.73;;;12.00;99.90;;;;;;5129352;27;20478;-68
2023/11/08 11:52:28;;;;;;;1.63;0.60;;;12.00;99.90;;;;;;5120250;27;20474;-68
2023/11/08 11:54:55;;;;;;;1.70;0.95;;;12.00;99.90;;;;;;5133215;27;20019;-65
2023/11/08 11:57:24;;;;;;;3.05;0.60;;;12.00;99.90;;;;;;5135776;27;20035;-65
2023/11/08 11:59:51;;;;;;;0.57;0.55;;;12.00;99.90;;;;;;5131765;27;20050;-68
2023/11/08 12:02:17;;;;;;;4.07;0.70;;;12.00;99.90;;;;;;5134760;27;20030;-65
2023/11/08 12:04:45;;;;;;;1.42;0.60;;;11.90;99.90;;;;;;5134093;27;20015;-66
2023/11/08 12:07:14;;;;;;;1.35;0.60;;;12.00;99.90;;;;;;5135445;27;20451;-66
2023/11/08 12:09:41;;;;;;;0.68;0.60;;;12.00;99.90;;;;;;5131030;27;20019;-66
2023/11/08 12:12:07;;;;;;;0.63;0.40;;;12.00;99.90;;;;;;5128271;27;20023;-66
2023/11/08 12:14:34;;;;;;;2.15;0.50;;;12.00;99.90;;;;;;5124418;27;20034;-67
2023/11/08 12:17:03;;;;;;;1.75;0.68;;;12.00;99.90;;;;;;5134132;27;20418;-66
2023/11/08 12:19:30;;;;;;;1.67;0.88;;;11.90;99.90;;;;;;5132115;27;20096;-66
2023/11/08 12:21:56;;;;;;;2.05;0.95;;;11.90;99.90;;;;;;5134296;27;20046;-66
2023/11/08 12:24:22;;;;;;;1.73;0.75;;;11.80;99.90;;;;;;5133336;27;20030;-66
2023/11/08 12:26:48;;;;;;;3.03;0.50;;;11.80;99.90;;;;;;5124429;27;20019;-66
2023/11/08 12:29:16;;;;;;;2.10;0.50;;;11.80;99.90;;;;;;5134022;27;20019;-66
2023/11/08 12:31:44;;;;;;;0.85;0.45;;;11.90;99.90;;;;;;5123589;27;20103;-66
2023/11/08 12:34:10;;;;;;;2.83;1.25;;;11.80;99.90;;;;;;5131374;27;20015;-67
2023/11/08 12:36:39;;;;;;;2.55;0.75;;;11.80;99.90;;;;;;5114216;27;20464;-66
2023/11/08 12:39:13;;;;;;;1.13;0.38;;;11.90;99.90;;;;;;5130129;27;20031;-66
2023/11/08 12:41:46;;;;;;;1.13;0.45;;;12.00;99.90;;;;;;5120456;27;20118;-66
2023/11/08 12:44:13;;;;;;;1.65;0.77;;;12.10;99.90;;;;;;5122545;27;20030;-66
2023/11/08 12:46:55;;;;;;;2.13;0.80;;;12.10;99.90;;;;;;5132285;27;20084;-67
2023/11/08 12:49:32;;;;;;;1.42;0.80;;;12.10;99.90;;;;;;5133351;27;20076;-66
2023/11/08 12:52:02;;;;;;;4.60;1.58;;;12.10;99.90;;;;;;5133109;27;20023;-66
2023/11/08 12:54:28;;;;;;;3.47;0.90;;;12.10;99.90;;;;;;5133512;27;20031;-66